Terminal Aerodrome Forecast
Issued by NWS

Home | Current Version | Previous Version | Text Only | Print | Product List | Glossary On
Versions: 1 2 3 4 5 6 7 8 9 10 11 12 13 14 15 16 17 18 19 20 21 22 23 24 25 26 27 28 29 30
000
FTUS42 KCAE 030500
TAFCUB
TAF
KCUB 030520Z 0306/0406 VRB03KT P6SM BKN150
      TEMPO 0310/0312 4SM BR
     FM031500 VRB03KT P6SM SCT250
     FM032000 16008KT P6SM SCT040 BKN200=

USA.gov is the U.S. government's official web portal to all federal, state and local government web resources and services.